createdAt,value
2023-12-16T00:02:27.437Z,83.26
2023-12-16T00:04:59.069Z,83.65
2023-12-16T00:07:30.785Z,83.69
2023-12-16T00:10:02.591Z,83.39
2023-12-16T00:12:34.616Z,83.40
2023-12-16T00:15:07.588Z,83.64
2023-12-16T00:17:39.884Z,83.79
2023-12-16T00:20:13.194Z,83.75
2023-12-16T00:22:46.749Z,83.67
2023-12-16T00:25:18.920Z,83.69
2023-12-16T00:27:50.626Z,83.77
2023-12-16T00:30:22.342Z,83.60
2023-12-16T00:32:54.106Z,83.05
2023-12-16T00:35:26.085Z,83.68
2023-12-16T00:37:57.746Z,83.49
2023-12-16T00:40:29.678Z,83.39
2023-12-16T00:43:01.518Z,83.87
2023-12-16T00:45:33.205Z,83.68
2023-12-16T00:48:04.994Z,83.61
2023-12-16T00:50:39.452Z,83.49
2023-12-16T00:53:11.146Z,83.69
2023-12-16T00:55:42.975Z,83.63
2023-12-16T00:58:14.673Z,83.77
2023-12-16T01:00:46.867Z,83.95
2023-12-16T01:03:18.948Z,83.66
2023-12-16T01:05:50.835Z,83.53
2023-12-16T01:08:22.404Z,83.54
2023-12-16T01:10:54.032Z,83.41
2023-12-16T01:13:25.632Z,83.30
2023-12-16T01:15:57.447Z,83.62
2023-12-16T01:18:29.299Z,83.50
2023-12-16T01:21:01.016Z,83.59
2023-12-16T01:23:32.844Z,83.67
2023-12-16T01:26:04.826Z,83.75
2023-12-16T01:28:36.425Z,83.70
2023-12-16T01:31:09.379Z,84.12
2023-12-16T01:33:41.108Z,83.86
2023-12-16T01:36:13.191Z,83.96
2023-12-16T01:38:44.763Z,83.74
2023-12-16T01:41:16.460Z,83.85
2023-12-16T01:43:48.404Z,83.92
2023-12-16T01:46:20.870Z,83.64
2023-12-16T01:48:52.719Z,83.67
2023-12-16T01:51:24.592Z,83.85
2023-12-16T01:53:56.554Z,83.85
2023-12-16T01:56:29.953Z,83.80
2023-12-16T01:59:01.958Z,83.92
2023-12-16T02:01:34.049Z,84.09
2023-12-16T02:04:06.029Z,84.45
2023-12-16T02:06:41.192Z,84.25
2023-12-16T02:09:14.392Z,84.33
2023-12-16T02:11:46.677Z,84.30
2023-12-16T02:14:18.460Z,84.75
2023-12-16T02:16:50.440Z,84.33
2023-12-16T02:19:27.723Z,84.42
2023-12-16T02:21:59.776Z,84.34
2023-12-16T02:24:32.886Z,84.40
2023-12-16T02:27:04.954Z,83.90
2023-12-16T02:29:36.729Z,84.19
2023-12-16T02:32:10.013Z,84.23
2023-12-16T02:34:41.643Z,84.04
2023-12-16T02:37:14.190Z,84.18
2023-12-16T02:39:45.843Z,84.57
2023-12-16T02:42:17.634Z,84.39
2023-12-16T02:44:49.501Z,84.62
2023-12-16T02:47:21.164Z,84.87
2023-12-16T02:49:53.087Z,84.54
2023-12-16T02:52:25.214Z,84.93
2023-12-16T02:54:56.903Z,85.12
2023-12-16T02:57:28.941Z,84.76
2023-12-16T03:00:00.588Z,85.11
2023-12-16T03:02:32.337Z,84.84
2023-12-16T03:05:04.625Z,84.74
2023-12-16T03:07:36.472Z,84.97
2023-12-16T03:10:09.538Z,84.97
2023-12-16T03:12:41.401Z,85.00
2023-12-16T03:15:13.946Z,85.44
2023-12-16T03:17:47.232Z,85.27
2023-12-16T03:20:19.050Z,85.33
2023-12-16T03:22:50.799Z,85.21
2023-12-16T03:25:22.688Z,84.95
2023-12-16T03:27:54.407Z,85.40
2023-12-16T03:30:26.011Z,85.28
2023-12-16T03:32:57.687Z,85.02
2023-12-16T03:35:29.403Z,85.21
2023-12-16T03:38:01.670Z,85.02
2023-12-16T03:40:33.267Z,85.04
2023-12-16T03:43:05.057Z,85.24
2023-12-16T03:45:36.716Z,85.16
2023-12-16T03:48:09.107Z,85.30
2023-12-16T03:50:40.738Z,85.03
2023-12-16T03:53:12.586Z,85.47
2023-12-16T03:55:44.472Z,85.39
2023-12-16T03:58:16.230Z,85.45
2023-12-16T04:00:48.290Z,85.35
2023-12-16T04:03:20.036Z,85.27
2023-12-16T04:05:51.900Z,85.41
2023-12-16T04:08:23.644Z,85.42
2023-12-16T04:10:55.296Z,85.35
2023-12-16T04:13:27.127Z,85.31
2023-12-16T04:15:58.773Z,85.43
2023-12-16T04:18:30.947Z,85.13
2023-12-16T04:21:03.341Z,85.09
2023-12-16T04:23:35.017Z,85.37
2023-12-16T04:26:08.709Z,85.23
2023-12-16T04:28:40.707Z,85.60
2023-12-16T04:31:18.643Z,85.62
2023-12-16T04:33:51.170Z,85.70
2023-12-16T04:36:23.408Z,85.42
2023-12-16T04:38:55.276Z,85.47
2023-12-16T04:41:26.908Z,85.65
2023-12-16T04:43:59.020Z,85.66
2023-12-16T04:46:30.734Z,85.91
2023-12-16T04:49:03.039Z,86.04
2023-12-16T04:51:34.734Z,86.08
2023-12-16T04:54:06.733Z,85.94
2023-12-16T04:56:38.453Z,86.10
2023-12-16T04:59:10.119Z,85.94
2023-12-16T05:01:41.833Z,86.13
2023-12-16T05:04:13.677Z,85.99
2023-12-16T05:06:45.554Z,85.93
2023-12-16T05:09:17.539Z,85.90
2023-12-16T05:11:49.139Z,86.09
2023-12-16T05:14:20.928Z,86.25
2023-12-16T05:16:52.593Z,86.08
2023-12-16T05:19:24.286Z,86.55
2023-12-16T05:21:56.098Z,86.52
2023-12-16T05:24:27.850Z,86.28
2023-12-16T05:26:59.524Z,86.50
2023-12-16T05:29:31.269Z,86.42
2023-12-16T05:32:03.491Z,86.83
2023-12-16T05:34:35.307Z,86.80
2023-12-16T05:37:07.395Z,86.70
2023-12-16T05:39:39.045Z,86.57
2023-12-16T05:42:10.816Z,86.46
2023-12-16T05:44:42.701Z,86.47
2023-12-16T05:47:14.517Z,86.66
2023-12-16T05:49:47.103Z,86.85
2023-12-16T05:52:19.041Z,86.68
2023-12-16T05:54:50.854Z,86.61
2023-12-16T05:57:22.716Z,86.84
2023-12-16T05:59:54.607Z,86.93
2023-12-16T06:02:26.680Z,86.79
2023-12-16T06:04:58.840Z,86.98
2023-12-16T06:07:30.594Z,86.93
2023-12-16T06:10:04.211Z,87.06
2023-12-16T06:12:37.382Z,87.17
2023-12-16T06:15:11.006Z,86.94
2023-12-16T06:17:43.121Z,86.93
2023-12-16T06:20:16.032Z,86.84
2023-12-16T06:22:47.920Z,86.85
2023-12-16T06:25:19.534Z,86.87
2023-12-16T06:27:51.404Z,86.88
2023-12-16T06:30:23.500Z,87.14
2023-12-16T06:32:55.331Z,87.26
2023-12-16T06:35:27.281Z,87.23
2023-12-16T06:37:58.900Z,87.10
2023-12-16T06:40:32.894Z,86.99
2023-12-16T06:43:04.783Z,87.09
2023-12-16T06:45:39.442Z,87.43
2023-12-16T06:48:09.768Z,87.44
2023-12-16T06:50:41.482Z,87.61
2023-12-16T06:53:13.708Z,87.44
2023-12-16T06:55:45.849Z,87.24
2023-12-16T06:58:17.600Z,87.46
2023-12-16T07:00:49.565Z,87.24
2023-12-16T07:03:21.274Z,87.41
2023-12-16T07:05:53.197Z,87.31
2023-12-16T07:08:24.741Z,87.26
2023-12-16T07:10:56.365Z,87.36
2023-12-16T07:13:27.979Z,87.74
2023-12-16T07:15:59.854Z,87.50
2023-12-16T07:18:31.723Z,87.54
2023-12-16T07:21:03.818Z,87.44
2023-12-16T07:23:35.402Z,87.45
2023-12-16T07:26:07.425Z,87.26
2023-12-16T07:28:39.384Z,87.23
2023-12-16T07:31:11.384Z,87.29
2023-12-16T07:33:43.131Z,87.50
2023-12-16T07:36:16.943Z,87.40
2023-12-16T07:38:48.626Z,87.26
2023-12-16T07:41:20.496Z,87.40
2023-12-16T07:43:52.265Z,87.46
2023-12-16T07:46:25.871Z,87.32
2023-12-16T07:48:57.663Z,87.28
2023-12-16T07:51:29.503Z,87.29
2023-12-16T07:54:01.285Z,87.26
2023-12-16T07:56:33.146Z,87.18
2023-12-16T07:59:04.975Z,87.02
2023-12-16T08:01:36.849Z,87.20
2023-12-16T08:04:08.593Z,87.27
2023-12-16T08:06:40.554Z,87.19
2023-12-16T08:09:12.135Z,87.27
2023-12-16T08:12:11.286Z,87.21
2023-12-16T08:14:41.598Z,87.05
2023-12-16T08:17:13.274Z,87.08
2023-12-16T08:19:45.220Z,87.11
2023-12-16T08:22:16.999Z,87.21
2023-12-16T08:24:48.859Z,87.10
2023-12-16T08:27:20.898Z,87.05
2023-12-16T08:30:34.178Z,86.93
2023-12-16T08:33:06.318Z,86.49
2023-12-16T08:35:38.697Z,86.43
2023-12-16T08:38:10.415Z,86.36
2023-12-16T08:40:42.122Z,85.76
2023-12-16T08:43:14.006Z,85.68
2023-12-16T08:45:45.646Z,85.93
2023-12-16T08:48:17.465Z,85.63
2023-12-16T08:50:49.189Z,85.24
2023-12-16T08:53:21.991Z,84.85
2023-12-16T08:55:53.694Z,84.29
2023-12-16T08:58:25.478Z,84.14
2023-12-16T09:00:57.296Z,83.96
2023-12-16T09:03:29.040Z,83.76
2023-12-16T09:06:28.848Z,83.85
2023-12-16T09:09:02.575Z,82.92
2023-12-16T09:11:34.239Z,83.03
2023-12-16T09:14:06.922Z,82.41
2023-12-16T09:16:38.794Z,82.26
2023-12-16T09:19:13.376Z,82.40
2023-12-16T09:21:46.531Z,82.38
2023-12-16T09:24:19.199Z,82.39
2023-12-16T09:26:51.257Z,82.00
2023-12-16T09:29:23.960Z,82.25
2023-12-16T09:31:56.705Z,81.80
2023-12-16T09:34:28.353Z,82.31
2023-12-16T09:37:00.033Z,81.98
2023-12-16T09:39:31.667Z,81.65
2023-12-16T09:42:03.854Z,81.56
2023-12-16T09:44:38.909Z,81.55
2023-12-16T09:47:12.359Z,81.39
2023-12-16T09:49:44.278Z,80.85
2023-12-16T09:52:16.060Z,80.35
2023-12-16T09:54:47.853Z,80.42
2023-12-16T09:57:20.397Z,80.43
2023-12-16T09:59:52.814Z,79.59
2023-12-16T10:02:27.906Z,80.05
2023-12-16T10:05:00.708Z,79.72
2023-12-16T10:07:32.504Z,79.44
2023-12-16T10:10:05.971Z,79.46
2023-12-16T10:12:38.156Z,79.53
2023-12-16T10:15:11.166Z,79.41
2023-12-16T10:17:52.410Z,79.50
2023-12-16T10:53:12.087Z,81.36
2023-12-16T10:55:45.285Z,81.54
2023-12-16T10:58:21.788Z,81.64
2023-12-16T11:00:52.273Z,81.70
2023-12-16T11:03:25.923Z,81.29
2023-12-16T11:05:57.438Z,81.17
2023-12-16T11:08:28.510Z,80.91
2023-12-16T11:11:35.447Z,80.84
2023-12-16T11:14:04.339Z,80.83
2023-12-16T11:16:40.648Z,80.28
2023-12-16T11:19:37.926Z,80.30
2023-12-16T11:22:06.441Z,80.41
2023-12-16T11:24:40.778Z,79.98
2023-12-16T11:27:09.880Z,80.07
2023-12-16T11:29:38.051Z,80.09
2023-12-16T11:32:34.424Z,79.55
2023-12-16T11:35:03.274Z,79.85
2023-12-16T11:37:44.462Z,80.24
2023-12-16T11:40:47.984Z,79.23
2023-12-16T11:43:16.269Z,79.14
2023-12-16T11:45:49.784Z,79.17
2023-12-16T11:48:19.385Z,79.15
2023-12-16T11:50:48.919Z,79.03
2023-12-16T11:53:19.727Z,79.12
2023-12-16T11:55:48.244Z,78.95
2023-12-16T11:58:19.032Z,78.78
2023-12-16T12:01:20.440Z,78.69
2023-12-16T12:03:52.265Z,78.86
2023-12-16T12:06:26.459Z,78.78
2023-12-16T12:08:57.274Z,78.77
2023-12-16T12:11:26.938Z,78.65
2023-12-16T12:13:56.536Z,79.04
2023-12-16T12:16:28.850Z,78.66
2023-12-16T12:18:57.942Z,79.06
2023-12-16T12:21:27.315Z,78.91
2023-12-16T12:23:56.592Z,78.97
2023-12-16T12:26:25.014Z,78.74
2023-12-16T12:29:01.116Z,78.65
2023-12-16T12:31:31.942Z,78.71
2023-12-16T12:34:00.740Z,78.85
2023-12-16T12:36:29.815Z,78.88
2023-12-16T12:38:59.583Z,78.69
2023-12-16T12:41:28.248Z,78.93
2023-12-16T12:43:56.805Z,78.93
2023-12-16T12:46:27.041Z,78.88
2023-12-16T12:48:56.507Z,79.15
2023-12-16T12:51:31.995Z,79.00
2023-12-16T12:54:03.186Z,78.73
2023-12-16T12:56:33.843Z,79.08
2023-12-16T12:59:56.913Z,78.98
2023-12-16T13:01:53.320Z,79.02
2023-12-16T13:04:25.318Z,78.93
2023-12-16T13:07:01.094Z,78.93
2023-12-16T13:09:32.773Z,79.06
2023-12-16T13:12:01.614Z,78.71
2023-12-16T13:14:30.180Z,79.33
2023-12-16T13:16:59.180Z,79.18
2023-12-16T13:19:28.960Z,79.28
2023-12-16T13:21:57.438Z,79.10
2023-12-16T13:24:27.565Z,79.29
2023-12-16T13:26:56.427Z,79.68
2023-12-16T13:29:31.671Z,79.58
2023-12-16T13:32:15.578Z,79.49
2023-12-16T13:34:44.607Z,79.70
2023-12-16T13:37:15.210Z,79.76
2023-12-16T13:39:49.941Z,79.90
2023-12-16T13:42:24.043Z,80.25
2023-12-16T13:44:52.888Z,80.16
2023-12-16T13:47:21.286Z,80.54
2023-12-16T13:49:50.176Z,80.39
2023-12-16T13:52:18.683Z,80.44
2023-12-16T13:54:47.559Z,80.68
2023-12-16T13:57:16.935Z,80.69
2023-12-16T13:59:45.586Z,80.96
2023-12-16T14:02:14.117Z,81.27
2023-12-16T14:04:44.330Z,81.29
2023-12-16T14:09:46.925Z,81.69
2023-12-16T14:12:15.212Z,81.69
2023-12-16T14:14:44.602Z,81.76
2023-12-16T14:17:14.384Z,82.05
2023-12-16T14:19:43.134Z,81.79
2023-12-16T14:22:11.930Z,81.77
2023-12-16T14:24:39.440Z,81.57
2023-12-16T14:27:08.812Z,81.78
2023-12-16T14:29:37.419Z,81.62
2023-12-16T14:32:07.321Z,81.98
2023-12-16T14:34:36.109Z,81.63
2023-12-16T14:37:05.431Z,81.61
2023-12-16T14:39:34.545Z,81.94
2023-12-16T14:42:03.027Z,81.57
2023-12-16T14:44:30.628Z,81.68
2023-12-16T14:46:59.159Z,81.76
2023-12-16T14:49:28.347Z,81.46
2023-12-16T14:51:57.040Z,81.50
2023-12-16T14:54:25.121Z,81.70
2023-12-16T14:56:53.693Z,81.58
2023-12-16T14:59:21.783Z,81.41
2023-12-16T15:01:50.645Z,81.66
2023-12-16T15:04:19.332Z,81.83
2023-12-16T15:06:47.902Z,81.43
2023-12-16T15:09:15.775Z,81.64
2023-12-16T15:11:44.655Z,81.52
2023-12-16T15:14:15.194Z,81.68
2023-12-16T15:16:44.127Z,81.63
2023-12-16T15:19:12.896Z,81.46
2023-12-16T15:21:41.859Z,81.49
2023-12-16T15:24:10.684Z,81.87
2023-12-16T15:26:39.480Z,81.63
2023-12-16T15:29:07.916Z,81.57
2023-12-16T15:31:40.822Z,81.62
2023-12-16T15:34:09.578Z,81.75
2023-12-16T15:36:38.183Z,81.69
2023-12-16T15:39:10.357Z,81.92
2023-12-16T15:41:39.256Z,81.67
2023-12-16T15:44:08.161Z,81.57
2023-12-16T15:46:41.340Z,81.47
2023-12-16T15:49:09.806Z,81.71
2023-12-16T15:51:38.497Z,81.38
2023-12-16T15:54:07.091Z,81.22
2023-12-16T15:56:39.529Z,81.12
2023-12-16T15:59:08.153Z,81.22
2023-12-16T16:01:37.877Z,81.07
2023-12-16T16:04:06.373Z,80.75
2023-12-16T16:06:35.951Z,80.63
2023-12-16T16:09:05.652Z,80.83
2023-12-16T16:11:34.353Z,80.88
2023-12-16T16:14:02.976Z,80.89
2023-12-16T16:16:32.412Z,80.70
2023-12-16T16:19:03.592Z,80.81
2023-12-16T16:21:34.402Z,80.99
2023-12-16T16:24:05.005Z,80.86
2023-12-16T16:26:33.668Z,81.19
2023-12-16T16:29:05.372Z,81.27
2023-12-16T16:31:38.174Z,81.25
2023-12-16T16:34:06.820Z,81.37
2023-12-16T16:36:35.983Z,81.58
2023-12-16T16:39:04.824Z,81.41
2023-12-16T16:41:33.471Z,81.49
2023-12-16T16:44:02.001Z,81.34
2023-12-16T16:46:29.708Z,81.51
2023-12-16T16:48:58.315Z,81.81
2023-12-16T16:51:28.526Z,81.45
2023-12-16T16:53:57.352Z,81.74
2023-12-16T16:56:25.796Z,81.85
2023-12-16T16:58:54.691Z,81.74
2023-12-16T17:01:23.153Z,81.63
2023-12-16T17:03:50.766Z,81.38
2023-12-16T17:06:19.856Z,80.99
2023-12-16T17:08:49.833Z,81.06
2023-12-16T17:11:23.365Z,80.97
2023-12-16T17:13:54.605Z,81.23
2023-12-16T17:16:26.327Z,81.29
2023-12-16T17:18:57.463Z,81.18
2023-12-16T17:21:25.867Z,80.80
2023-12-16T17:23:54.477Z,80.78
2023-12-16T17:26:56.212Z,80.58
2023-12-16T17:29:42.278Z,80.63
2023-12-16T17:32:12.819Z,80.29
2023-12-16T17:34:41.313Z,79.95
2023-12-16T17:37:11.233Z,80.05
2023-12-16T17:39:40.304Z,80.28
2023-12-16T17:42:17.653Z,79.93
2023-12-16T17:44:47.168Z,79.73
2023-12-16T17:47:17.095Z,79.84
2023-12-16T17:49:45.953Z,79.97
2023-12-16T17:52:14.600Z,80.10
2023-12-16T17:54:43.288Z,80.32
2023-12-16T17:57:17.011Z,79.88
2023-12-16T17:59:56.174Z,79.91
2023-12-16T18:02:36.134Z,79.58
2023-12-16T18:05:12.493Z,79.91
2023-12-16T18:07:50.970Z,79.89
2023-12-16T18:10:27.676Z,79.86
2023-12-16T18:13:11.725Z,79.73
2023-12-16T18:15:42.764Z,79.59
2023-12-16T18:18:18.397Z,79.55
2023-12-16T18:21:00.728Z,79.11
2023-12-16T18:23:44.789Z,79.87
2023-12-16T18:26:16.897Z,79.21
2023-12-16T18:29:00.240Z,79.47
2023-12-16T18:31:40.388Z,79.52
2023-12-16T18:34:16.109Z,79.04
2023-12-16T18:36:59.391Z,79.29
2023-12-16T18:39:38.736Z,78.96
2023-12-16T18:42:27.852Z,79.21
2023-12-16T18:45:09.770Z,79.76
2023-12-16T18:47:48.910Z,79.36
2023-12-16T18:50:48.636Z,79.20
2023-12-16T18:53:34.845Z,78.72
2023-12-16T18:56:13.943Z,78.92
2023-12-16T18:58:50.960Z,78.95
2023-12-16T19:01:26.055Z,78.57
2023-12-16T19:04:24.264Z,78.55
2023-12-16T19:07:03.872Z,78.28
2023-12-16T19:10:01.177Z,78.30
2023-12-16T19:12:37.490Z,77.74
2023-12-16T19:15:21.396Z,77.99
2023-12-16T19:17:53.060Z,78.19
2023-12-16T19:20:26.226Z,78.35
2023-12-16T19:22:55.107Z,77.86
2023-12-16T19:25:23.631Z,77.76
2023-12-16T19:27:58.660Z,77.68
2023-12-16T19:30:27.535Z,77.51
2023-12-16T19:32:59.370Z,77.20
2023-12-16T19:35:28.979Z,77.20
2023-12-16T19:38:01.438Z,77.33
2023-12-16T19:40:34.065Z,77.19
2023-12-16T19:43:08.993Z,77.25
2023-12-16T19:45:39.665Z,77.24
2023-12-16T19:48:19.992Z,77.51
2023-12-16T19:50:53.329Z,76.81
2023-12-16T19:53:22.769Z,76.92
2023-12-16T19:55:54.717Z,76.56
2023-12-16T19:58:24.334Z,76.56
2023-12-16T20:00:57.420Z,76.74
2023-12-16T20:03:35.177Z,76.60
2023-12-16T20:06:07.034Z,76.73
2023-12-16T20:08:37.915Z,76.33
2023-12-16T20:11:17.992Z,76.55
2023-12-16T20:13:51.176Z,76.31
2023-12-16T20:16:25.366Z,76.31
2023-12-16T20:18:54.132Z,76.52
2023-12-16T20:21:23.988Z,76.93
2023-12-16T20:24:05.095Z,76.97
2023-12-16T20:26:38.389Z,76.81
2023-12-16T20:29:25.503Z,76.28
2023-12-16T20:31:56.333Z,76.08
2023-12-16T20:34:25.327Z,76.42
2023-12-16T20:36:54.188Z,76.17
2023-12-16T20:39:44.086Z,76.11
2023-12-16T20:42:15.030Z,76.13
2023-12-16T20:44:43.978Z,76.13
2023-12-16T20:47:16.352Z,76.22
2023-12-16T20:50:02.964Z,75.82
2023-12-16T20:52:45.100Z,75.68
2023-12-16T20:55:18.161Z,75.72
2023-12-16T20:57:50.447Z,75.89
2023-12-16T21:00:24.202Z,75.61
2023-12-16T21:02:54.375Z,75.56
2023-12-16T21:05:24.173Z,75.52
2023-12-16T21:07:53.675Z,75.49
2023-12-16T21:10:24.835Z,76.12
2023-12-16T21:12:53.227Z,75.73
2023-12-16T21:15:21.878Z,75.70
2023-12-16T21:17:52.646Z,75.54
2023-12-16T21:20:25.562Z,75.97
2023-12-16T21:22:54.250Z,75.85
2023-12-16T21:25:23.191Z,75.96
2023-12-16T21:27:51.723Z,75.57
2023-12-16T21:30:24.156Z,76.12
2023-12-16T21:32:53.191Z,75.98
2023-12-16T21:35:24.461Z,76.54
2023-12-16T21:37:53.597Z,76.30
2023-12-16T21:40:22.047Z,76.76
2023-12-16T21:42:49.529Z,76.56
2023-12-16T21:45:19.449Z,76.95
2023-12-16T21:47:53.070Z,77.02
2023-12-16T21:50:23.745Z,77.39
2023-12-16T21:52:54.025Z,78.05
2023-12-16T21:55:27.070Z,78.22
2023-12-16T21:57:55.854Z,78.44
2023-12-16T22:00:24.292Z,78.69
2023-12-16T22:02:52.715Z,78.82
2023-12-16T22:05:21.177Z,79.07
2023-12-16T22:07:49.860Z,79.17
2023-12-16T22:10:18.742Z,79.63
2023-12-16T22:12:47.991Z,80.23
2023-12-16T22:15:17.518Z,80.52
2023-12-16T22:17:46.496Z,80.56
2023-12-16T22:20:20.464Z,81.24
2023-12-16T22:22:49.459Z,81.78
2023-12-16T22:25:27.022Z,81.70
2023-12-16T22:27:55.494Z,82.13
2023-12-16T22:30:24.337Z,82.50
2023-12-16T22:32:52.704Z,82.40
2023-12-16T22:35:22.922Z,82.69
2023-12-16T22:37:52.509Z,82.74
2023-12-16T22:40:25.713Z,83.04
2023-12-16T22:42:54.168Z,83.08
2023-12-16T22:45:23.176Z,83.04
2023-12-16T22:47:53.216Z,83.39
2023-12-16T22:50:21.783Z,83.23
2023-12-16T22:52:53.211Z,83.52
2023-12-16T22:55:21.709Z,83.51
2023-12-16T22:57:52.925Z,83.94
2023-12-16T23:00:26.083Z,83.54
2023-12-16T23:02:54.675Z,83.64
2023-12-16T23:05:23.631Z,83.68
2023-12-16T23:07:52.605Z,83.71
2023-12-16T23:10:26.008Z,83.42
2023-12-16T23:12:56.184Z,83.42
2023-12-16T23:15:24.911Z,83.37
2023-12-16T23:17:53.731Z,83.21
2023-12-16T23:20:22.641Z,83.55
2023-12-16T23:22:51.308Z,83.20
2023-12-16T23:25:24.512Z,83.23
2023-12-16T23:27:53.122Z,82.98
2023-12-16T23:30:23.004Z,83.11
2023-12-16T23:32:53.974Z,83.03
2023-12-16T23:35:25.409Z,83.22
2023-12-16T23:37:53.928Z,83.05
2023-12-16T23:40:21.678Z,83.14
2023-12-16T23:42:50.284Z,83.57
2023-12-16T23:45:21.938Z,83.46
2023-12-16T23:47:50.494Z,83.68
2023-12-16T23:50:21.469Z,83.71
2023-12-16T23:52:50.406Z,83.57
2023-12-16T23:55:19.026Z,83.75
2023-12-16T23:57:48.187Z,83.60
